Witch Wells, Arizona
Current Conditions -  °F | °C
As of 8:54 PM on Tuesday 25 Nov 2014 (Local Time) from KSJN Reporting Station
Clear Clear  
Wind Chill: -4°   Ceiling: Unl
Heat Index:   Visibility: 10mi
Dew Point: -16°   Wind: 8mph
Humidity: 31%   Direction: 140°SE
Pressure: 30.38"   Gusts: NA
Location:  34.4981°N, 109.241°W
Report Text: KSJN 260354Z AUTO 14007KT 10SM CLR 00/M16 A3038 RMK AO2 SLP300 T00001156
Loading
Personal Weather Stations






























Interactive Weather Map New forecast layout! Learn more

10-Day Weather Forecast

Advertisements
Track Severe Weather on mobile